This is the latest recevied weather packets stored in our database for station/object SR7U-1. If no packets are shown the sender has not sent any weather packets the latest 1 day(s).
| Time | Temp. | Humidity | Pressure | Rain* | Wind** | Luminosity | Snow |
|---|---|---|---|---|---|---|---|
| 1778100235 | 15° C | 75% | 1006.7 hPa | - | - | - | - |
| 1778097752 | 15.56° C | 74% | 1006.7 hPa | - | - | - | - |
| 1778097011 | 15.56° C | 73% | 1006.7 hPa | - | - | - | - |
| 1778095495 | 16.11° C | 72% | 1006.7 hPa | - | - | - | - |
| 1778094655 | 16.11° C | 73% | 1006.9 hPa | - | - | - | - |
| 1778092024 | 17.22° C | 69% | 1007 hPa | - | - | - | - |
| 1778091160 | 18.33° C | 64% | 1006.6 hPa | - | - | - | - |
| 1778089485 | 20° C | 53% | 1005.7 hPa | - | - | - | - |
| 1778088012 | 21.11° C | 53% | 1005.6 hPa | - | - | - | - |
| 1778086380 | 22.78° C | 44% | 1005.5 hPa | - | - | - | - |
| 1778085520 | 23.33° C | 42% | 1005.5 hPa | - | - | - | - |
| 1778084760 | 23.33° C | 40% | 1005.5 hPa | - | - | - | - |
| 1778083190 | 24.44° C | 37% | 1005.7 hPa | - | - | - | - |
| 1778082405 | 24.44° C | 37% | 1005.8 hPa | - | - | - | - |
| 1778081660 | 23.89° C | 38% | 1005.7 hPa | - | - | - | - |
| 1778079995 | 25° C | 36% | 1005.8 hPa | - | - | - | - |
| 1778078393 | 24.44° C | 36% | 1006 hPa | - | - | - | - |
| 1778077641 | 24.44° C | 37% | 1006 hPa | - | - | - | - |
| 1778075270 | 23.33° C | 40% | 1006.2 hPa | - | - | - | - |
| 1778074522 | 24.44° C | 38% | 1006.3 hPa | - | - | - | - |
| 1778073010 | 23.89° C | 39% | 1006.4 hPa | - | - | - | - |
| 1778072195 | 23.89° C | 39% | 1006.4 hPa | - | - | - | - |
| 1778070640 | 23.33° C | 40% | 1006.5 hPa | - | - | - | - |
| 1778069750 | 22.78° C | 42% | 1006.4 hPa | - | - | - | - |
| 1778066545 | 22.22° C | 46% | 1006.6 hPa | - | - | - | - |
* Rain since midnight (hover to see other rain measurements)
** Current wind speed in m/s (hover to see current wind gust speed)